createdAt,value
2018-09-01T00:02:22.569Z,96030.67
2018-09-01T00:04:51.680Z,96028.50
2018-09-01T00:07:20.855Z,96027.72
2018-09-01T00:09:49.951Z,96031.02
2018-09-01T00:12:19.057Z,96033.97
2018-09-01T00:14:48.237Z,96035.69
2018-09-01T00:17:22.881Z,96024.70
2018-09-01T00:19:51.979Z,96022.52
2018-09-01T00:22:21.107Z,96026.34
2018-09-01T00:24:51.936Z,96022.91
2018-09-01T00:27:21.517Z,96025.38
2018-09-01T00:29:51.232Z,96028.13
2018-09-01T00:32:21.040Z,96027.63
2018-09-01T00:34:50.856Z,96029.00
2018-09-01T00:37:25.279Z,96026.25
2018-09-01T00:39:54.454Z,96032.78
2018-09-01T00:42:23.600Z,96023.46
2018-09-01T00:44:52.817Z,96033.12
2018-09-01T00:47:22.000Z,96041.02
2018-09-01T00:49:51.132Z,96044.94
2018-09-01T00:52:20.280Z,96050.47
2018-09-01T00:54:49.460Z,96045.97
2018-09-01T00:57:18.688Z,96047.88
2018-09-01T00:59:47.902Z,96040.21
2018-09-01T01:02:17.088Z,96041.91
2018-09-01T01:04:46.292Z,96038.41
2018-09-01T01:07:15.639Z,96050.95
2018-09-01T01:09:45.588Z,96039.83
2018-09-01T01:12:14.838Z,96046.69
2018-09-01T01:14:43.951Z,96042.02
2018-09-01T01:17:13.083Z,96040.92
2018-09-01T01:19:42.226Z,96042.29
2018-09-01T01:22:11.358Z,96034.30
2018-09-01T01:24:40.531Z,96029.67
2018-09-01T01:27:09.805Z,96028.86
2018-09-01T01:29:38.969Z,96024.03
2018-09-01T01:32:08.177Z,96022.34
2018-09-01T01:34:37.289Z,96020.67
2018-09-01T01:37:06.481Z,96023.44
2018-09-01T01:39:35.579Z,96018.61
2018-09-01T01:42:04.749Z,96022.17
2018-09-01T01:44:33.850Z,96016.37
2018-09-01T01:47:03.395Z,96021.62
2018-09-01T01:49:32.617Z,96019.91
2018-09-01T01:52:01.753Z,96019.38
2018-09-01T01:54:30.953Z,96022.45
2018-09-01T01:57:00.077Z,96013.73
2018-09-01T01:59:29.241Z,96016.53
2018-09-01T02:01:58.445Z,96013.73
2018-09-01T02:04:27.554Z,96022.55
2018-09-01T02:06:56.652Z,96029.86
2018-09-01T02:09:25.844Z,96024.64
2018-09-01T02:11:55.015Z,96026.47
2018-09-01T02:14:24.195Z,96030.34
2018-09-01T02:16:53.344Z,96026.23
2018-09-01T02:19:22.468Z,96024.53
2018-09-01T02:21:51.864Z,96030.34
2018-09-01T02:24:20.986Z,96024.70
2018-09-01T02:26:50.127Z,96027.72
2018-09-01T02:29:19.412Z,96025.26
2018-09-01T02:31:48.606Z,96033.53
2018-09-01T02:34:17.818Z,96025.58
2018-09-01T02:36:46.925Z,96023.89
2018-09-01T02:39:16.051Z,96029.70
2018-09-01T02:41:45.188Z,96032.45
2018-09-01T02:44:14.403Z,96038.20
2018-09-01T02:46:43.509Z,96041.54
2018-09-01T02:49:12.619Z,96039.30
2018-09-01T02:51:41.727Z,96045.94
2018-09-01T02:54:10.971Z,96045.72
2018-09-01T02:56:40.089Z,96044.33
2018-09-01T02:59:09.225Z,96045.11
2018-09-01T03:01:38.392Z,96041.00
2018-09-01T03:04:08.141Z,96041.37
2018-09-01T03:06:48.556Z,96038.63
2018-09-01T03:09:17.832Z,96043.89
2018-09-01T03:11:47.025Z,96048.78
2018-09-01T03:14:16.251Z,96049.00
2018-09-01T03:16:45.440Z,96043.61
2018-09-01T03:19:14.622Z,96048.77
2018-09-01T03:21:43.778Z,96040.05
2018-09-01T03:24:12.922Z,96047.95
2018-09-01T03:26:42.136Z,96040.60
2018-09-01T03:29:11.236Z,96045.82
2018-09-01T03:31:40.365Z,96039.56
2018-09-01T03:34:09.564Z,96032.42
2018-09-01T03:36:38.689Z,96039.05
2018-09-01T03:39:09.064Z,96041.20
2018-09-01T03:41:38.804Z,96042.29
2018-09-01T03:44:08.080Z,96041.47
2018-09-01T03:46:37.255Z,96045.14
2018-09-01T03:49:07.932Z,96049.47
2018-09-01T03:51:37.068Z,96047.66
2018-09-01T03:54:06.692Z,96049.80
2018-09-01T03:56:35.831Z,96045.83
2018-09-01T03:59:05.031Z,96043.82
2018-09-01T04:01:34.292Z,96040.58
2018-09-01T04:04:03.386Z,96032.91
2018-09-01T04:06:32.590Z,96028.84
2018-09-01T04:09:01.722Z,96030.76
2018-09-01T04:11:30.848Z,96029.95
2018-09-01T04:13:59.962Z,96031.30
2018-09-01T04:16:29.138Z,96029.17
2018-09-01T04:19:02.381Z,96027.25
2018-09-01T04:21:31.521Z,96033.55
2018-09-01T04:24:00.690Z,96027.84
2018-09-01T04:26:29.834Z,96025.06
2018-09-01T04:28:58.960Z,96029.45
2018-09-01T04:31:28.061Z,96021.81
2018-09-01T04:33:57.389Z,96024.29
2018-09-01T04:36:26.720Z,96024.88
2018-09-01T04:38:56.133Z,96026.53
2018-09-01T04:41:25.312Z,96026.20
2018-09-01T04:43:54.443Z,96027.63
2018-09-01T04:46:23.596Z,96021.00
2018-09-01T04:48:52.831Z,96018.03
2018-09-01T04:51:22.012Z,96016.02
2018-09-01T04:53:51.228Z,96016.34
2018-09-01T04:56:20.342Z,96017.77
2018-09-01T04:58:49.504Z,96019.99
2018-09-01T05:01:18.635Z,96031.46
2018-09-01T05:03:47.812Z,96037.53
2018-09-01T05:06:16.972Z,96032.05
2018-09-01T05:08:46.224Z,96034.19
2018-09-01T05:11:15.375Z,96034.92
2018-09-01T05:13:44.576Z,96029.40
2018-09-01T05:16:13.793Z,96028.03
2018-09-01T05:18:42.955Z,96029.03
2018-09-01T05:21:12.196Z,96025.60
2018-09-01T05:23:41.307Z,96024.47
2018-09-01T05:26:10.430Z,96030.53
2018-09-01T05:28:39.557Z,96031.59
2018-09-01T05:31:08.773Z,96028.12
2018-09-01T05:33:38.061Z,96037.16
2018-09-01T05:36:07.197Z,96039.13
2018-09-01T05:38:36.324Z,96038.31
2018-09-01T05:41:05.665Z,96043.55
2018-09-01T05:43:34.862Z,96044.39
2018-09-01T05:46:04.096Z,96051.05
2018-09-01T05:48:33.328Z,96047.13
2018-09-01T05:51:02.461Z,96049.91
2018-09-01T05:53:31.644Z,96053.70
2018-09-01T05:56:00.911Z,96063.97
2018-09-01T05:58:30.160Z,96069.69
2018-09-01T06:00:59.352Z,96066.63
2018-09-01T06:03:28.523Z,96072.97
2018-09-01T06:05:58.261Z,96077.16
2018-09-01T06:08:27.416Z,96074.38
2018-09-01T06:10:57.612Z,96066.49
2018-09-01T06:13:26.793Z,96071.42
2018-09-01T06:15:56.281Z,96072.25
2018-09-01T06:18:25.480Z,96078.58
2018-09-01T06:20:54.720Z,96079.36
2018-09-01T06:23:23.928Z,96074.34
2018-09-01T06:25:53.022Z,96073.56
2018-09-01T06:28:25.305Z,96076.80
2018-09-01T06:30:55.317Z,96071.60
2018-09-01T06:33:24.600Z,96072.88
2018-09-01T06:35:53.788Z,96070.38
2018-09-01T06:38:22.949Z,96072.33
2018-09-01T06:40:52.108Z,96076.48
2018-09-01T06:43:21.376Z,96068.58
2018-09-01T06:45:50.463Z,96069.77
2018-09-01T06:48:19.644Z,96076.30
2018-09-01T06:50:48.952Z,96074.33
2018-09-01T06:53:18.089Z,96063.88
2018-09-01T06:55:47.270Z,96073.16
2018-09-01T06:58:16.444Z,96071.64
2018-09-01T07:00:45.603Z,96076.84
2018-09-01T07:03:14.713Z,96082.55
2018-09-01T07:05:43.823Z,96091.28
2018-09-01T07:08:12.995Z,96089.32
2018-09-01T07:10:42.188Z,96086.67
2018-09-01T07:13:11.424Z,96089.50
2018-09-01T07:15:40.553Z,96095.53
2018-09-01T07:18:09.772Z,96104.13
2018-09-01T07:20:38.897Z,96102.64
2018-09-01T07:23:08.085Z,96102.06
2018-09-01T07:25:37.272Z,96108.16
2018-09-01T07:28:06.404Z,96110.35
2018-09-01T07:30:35.727Z,96115.59
2018-09-01T07:33:04.654Z,96123.81
2018-09-01T07:35:33.856Z,96122.44
2018-09-01T07:38:03.073Z,96122.44
2018-09-01T07:40:32.249Z,96129.53
2018-09-01T07:43:01.456Z,96135.59
2018-09-01T07:45:30.557Z,96150.11
2018-09-01T07:47:59.732Z,96147.06
2018-09-01T07:50:28.868Z,96143.22
2018-09-01T07:52:58.025Z,96135.83
2018-09-01T07:55:27.221Z,96138.25
2018-09-01T07:57:56.509Z,96133.63
2018-09-01T08:00:25.747Z,96136.02
2018-09-01T08:02:54.864Z,96131.86
2018-09-01T08:05:24.000Z,96139.27
2018-09-01T08:07:53.250Z,96138.17
2018-09-01T08:10:22.432Z,96134.06
2018-09-01T08:12:51.530Z,96137.66
2018-09-01T08:15:20.708Z,96135.83
2018-09-01T08:17:49.831Z,96134.46
2018-09-01T08:20:19.133Z,96140.44
2018-09-01T08:22:48.394Z,96142.08
2018-09-01T08:25:17.522Z,96148.08
2018-09-01T08:27:46.684Z,96157.97
2018-09-01T08:30:15.880Z,96160.75
2018-09-01T08:32:45.000Z,96168.39
2018-09-01T08:35:14.200Z,96166.51
2018-09-01T08:37:43.311Z,96167.09
2018-09-01T08:40:12.455Z,96170.65
2018-09-01T08:42:41.565Z,96167.59
2018-09-01T08:45:10.677Z,96170.30
2018-09-01T08:47:39.871Z,96169.47
2018-09-01T08:50:09.095Z,96171.67
2018-09-01T08:52:38.213Z,96175.54
2018-09-01T08:55:07.354Z,96173.28
2018-09-01T08:57:36.557Z,96182.05
2018-09-01T09:00:05.977Z,96185.60
2018-09-01T09:02:35.163Z,96183.14
2018-09-01T09:05:04.512Z,96182.31
2018-09-01T09:07:33.776Z,96183.61
2018-09-01T09:10:02.881Z,96184.08
2018-09-01T09:12:31.997Z,96187.72
2018-09-01T09:15:01.121Z,96187.68
2018-09-01T09:17:30.221Z,96192.30
2018-09-01T09:19:59.349Z,96194.61
2018-09-01T09:22:28.550Z,96192.96
2018-09-01T09:24:57.736Z,96197.55
2018-09-01T09:27:27.013Z,96205.84
2018-09-01T09:29:56.189Z,96202.86
2018-09-01T09:32:25.296Z,96200.16
2018-09-01T09:34:54.428Z,96203.38
2018-09-01T09:37:23.552Z,96201.53
2018-09-01T09:39:52.668Z,96201.88
2018-09-01T09:42:21.774Z,96197.18
2018-09-01T09:44:50.913Z,96191.98
2018-09-01T09:47:20.009Z,96193.41
2018-09-01T09:49:49.111Z,96190.03
2018-09-01T09:52:18.652Z,96184.23
2018-09-01T09:54:47.770Z,96182.78
2018-09-01T09:57:16.888Z,96184.86
2018-09-01T09:59:46.009Z,96191.44
2018-09-01T10:02:15.168Z,96184.63
2018-09-01T10:04:44.379Z,96186.04
2018-09-01T10:07:13.555Z,96192.38
2018-09-01T10:09:42.653Z,96198.98
2018-09-01T10:12:12.476Z,96192.38
2018-09-01T10:14:41.699Z,96193.40
2018-09-01T10:17:10.811Z,96192.06
2018-09-01T10:19:39.979Z,96197.55
2018-09-01T10:22:09.682Z,96194.84
2018-09-01T10:24:38.987Z,96198.77
2018-09-01T10:27:08.371Z,96203.50
2018-09-01T10:29:37.506Z,96191.52
2018-09-01T10:32:07.033Z,96192.77
2018-09-01T10:34:36.123Z,96200.69
2018-09-01T10:37:05.243Z,96198.41
2018-09-01T10:39:34.465Z,96198.41
2018-09-01T10:42:03.564Z,96202.12
2018-09-01T10:44:32.679Z,96206.86
2018-09-01T10:47:01.788Z,96200.47
2018-09-01T10:49:30.881Z,96209.91
2018-09-01T10:52:00.049Z,96211.87
2018-09-01T10:54:29.232Z,96210.98
2018-09-01T10:56:58.336Z,96216.77
2018-09-01T10:59:27.771Z,96213.64
2018-09-01T11:01:57.656Z,96224.01
2018-09-01T11:04:26.758Z,96219.31
2018-09-01T11:06:55.956Z,96220.13
2018-09-01T11:09:25.052Z,96221.73
2018-09-01T11:11:54.184Z,96223.73
2018-09-01T11:14:23.291Z,96227.30
2018-09-01T11:16:52.390Z,96232.08
2018-09-01T11:19:21.504Z,96237.29
2018-09-01T11:21:50.653Z,96240.58
2018-09-01T11:24:19.767Z,96249.31
2018-09-01T11:26:48.898Z,96252.33
2018-09-01T11:29:18.016Z,96244.93
2018-09-01T11:31:47.207Z,96251.50
2018-09-01T11:34:17.250Z,96255.07
2018-09-01T11:36:46.394Z,96252.64
2018-09-01T11:39:15.479Z,96255.38
2018-09-01T11:41:44.630Z,96244.53
2018-09-01T11:44:13.844Z,96240.42
2018-09-01T11:46:42.930Z,96240.55
2018-09-01T11:49:12.070Z,96240.93
2018-09-01T11:51:41.211Z,96242.73
2018-09-01T11:54:10.337Z,96237.84
2018-09-01T11:56:39.445Z,96235.06
2018-09-01T11:59:08.599Z,96237.05
2018-09-01T12:01:37.709Z,96245.00
2018-09-01T12:04:06.885Z,96241.36
2018-09-01T12:06:36.085Z,96246.38
2018-09-01T12:09:06.195Z,96249.04
2018-09-01T12:11:35.322Z,96251.51
2018-09-01T12:14:04.558Z,96258.13
2018-09-01T12:16:33.681Z,96262.20
2018-09-01T12:19:02.898Z,96263.95
2018-09-01T12:21:32.013Z,96268.61
2018-09-01T12:24:01.193Z,96272.76
2018-09-01T12:26:30.489Z,96275.47
2018-09-01T12:28:59.682Z,96275.50
2018-09-01T12:31:28.859Z,96282.42
2018-09-01T12:33:57.964Z,96277.73
2018-09-01T12:36:27.212Z,96277.97
2018-09-01T12:38:56.320Z,96280.47
2018-09-01T12:41:25.468Z,96277.17
2018-09-01T12:43:54.684Z,96268.92
2018-09-01T12:46:23.855Z,96270.45
2018-09-01T12:48:52.958Z,96270.07
2018-09-01T12:51:22.085Z,96265.92
2018-09-01T12:53:51.244Z,96266.67
2018-09-01T12:56:20.452Z,96269.17
2018-09-01T12:58:49.597Z,96272.89
2018-09-01T13:01:18.716Z,96278.92
2018-09-01T13:03:47.824Z,96277.62
2018-09-01T13:06:17.052Z,96271.59
2018-09-01T13:08:46.146Z,96269.74
2018-09-01T13:11:15.334Z,96268.72
2018-09-01T13:13:44.548Z,96265.36
2018-09-01T13:16:13.737Z,96264.06
2018-09-01T13:18:42.880Z,96267.90
2018-09-01T13:21:12.087Z,96270.88
2018-09-01T13:23:41.636Z,96271.94
2018-09-01T13:26:10.719Z,96272.83
2018-09-01T13:28:39.930Z,96273.44
2018-09-01T13:31:09.097Z,96274.58
2018-09-01T13:33:39.335Z,96269.61
2018-09-01T13:36:08.549Z,96274.54
2018-09-01T13:38:37.737Z,96276.11
2018-09-01T13:41:06.905Z,96272.96
2018-09-01T13:43:36.085Z,96278.95
2018-09-01T13:46:05.303Z,96283.16
2018-09-01T13:48:34.392Z,96280.11
2018-09-01T13:51:03.525Z,96286.66
2018-09-01T13:53:32.692Z,96281.66
2018-09-01T13:56:01.908Z,96280.81
2018-09-01T13:58:31.072Z,96281.94
2018-09-01T14:01:00.333Z,96284.64
2018-09-01T14:03:29.436Z,96282.48
2018-09-01T14:05:58.556Z,96291.22
2018-09-01T14:08:27.672Z,96291.02
2018-09-01T14:10:56.791Z,96298.20
2018-09-01T14:13:25.945Z,96294.30
2018-09-01T14:15:55.176Z,96299.84
2018-09-01T14:18:24.369Z,96299.34
2018-09-01T14:20:53.544Z,96303.67
2018-09-01T14:23:22.669Z,96301.76
2018-09-01T14:25:51.856Z,96301.78
2018-09-01T14:28:20.985Z,96305.89
2018-09-01T14:30:50.159Z,96303.70
2018-09-01T14:33:19.347Z,96293.30
2018-09-01T14:35:48.643Z,96297.98
2018-09-01T14:38:17.768Z,96297.73
2018-09-01T14:40:46.910Z,96294.11
2018-09-01T14:43:16.116Z,96288.39
2018-09-01T14:45:45.240Z,96285.59
2018-09-01T14:48:14.419Z,96285.62
2018-09-01T14:50:43.566Z,96288.64
2018-09-01T14:53:12.769Z,96290.01
2018-09-01T14:55:41.889Z,96299.87
2018-09-01T14:58:11.041Z,96293.33
2018-09-01T15:00:40.152Z,96297.43
2018-09-01T15:03:09.332Z,96288.72
2018-09-01T15:05:38.522Z,96287.08
2018-09-01T15:08:07.739Z,96294.14
2018-09-01T15:10:37.863Z,96292.83
2018-09-01T15:13:07.041Z,96292.25
2018-09-01T15:15:36.253Z,96286.75
2018-09-01T15:18:05.514Z,96286.78
2018-09-01T15:20:34.707Z,96293.89
2018-09-01T15:23:03.807Z,96290.64
2018-09-01T15:25:32.992Z,96289.02
2018-09-01T15:28:02.130Z,96289.03
2018-09-01T15:30:31.295Z,96290.91
2018-09-01T15:33:00.444Z,96298.28
2018-09-01T15:35:29.713Z,96292.23
2018-09-01T15:37:58.840Z,96302.91
2018-09-01T15:40:28.749Z,96293.62
2018-09-01T15:42:57.977Z,96296.91
2018-09-01T15:45:27.260Z,96309.27
2018-09-01T15:47:56.360Z,96311.97
2018-09-01T15:50:25.525Z,96316.62
2018-09-01T15:52:54.732Z,96322.71
2018-09-01T15:55:23.898Z,96308.19
2018-09-01T15:57:53.106Z,96308.22
2018-09-01T16:00:22.454Z,96309.56
2018-09-01T16:02:52.685Z,96300.22
2018-09-01T16:05:21.954Z,96307.38
2018-09-01T16:07:51.112Z,96304.91
2018-09-01T16:10:20.214Z,96308.47
2018-09-01T16:12:49.368Z,96313.95
2018-09-01T16:15:18.486Z,96318.33
2018-09-01T16:17:47.598Z,96313.67
2018-09-01T16:20:16.709Z,96315.31
2018-09-01T16:22:45.887Z,96323.25
2018-09-01T16:25:15.111Z,96317.83
2018-09-01T16:27:44.334Z,96307.40
2018-09-01T16:30:13.419Z,96313.42
2018-09-01T16:32:42.524Z,96308.82
2018-09-01T16:35:12.330Z,96306.61
2018-09-01T16:37:41.423Z,96309.06
2018-09-01T16:40:10.739Z,96308.25
2018-09-01T16:42:39.967Z,96306.13
2018-09-01T16:45:09.185Z,96311.61
2018-09-01T16:47:38.374Z,96309.14
2018-09-01T16:50:07.634Z,96305.03
2018-09-01T16:52:36.773Z,96307.77
2018-09-01T16:55:05.971Z,96316.53
2018-09-01T16:57:35.105Z,96313.82
2018-09-01T17:00:04.781Z,96315.98
2018-09-01T17:02:33.877Z,96317.33
2018-09-01T17:05:03.053Z,96312.97
2018-09-01T17:07:32.165Z,96313.59
2018-09-01T17:10:01.265Z,96319.56
2018-09-01T17:12:30.471Z,96313.02
2018-09-01T17:14:59.710Z,96317.19
2018-09-01T17:17:28.849Z,96316.08
2018-09-01T17:19:58.061Z,96308.43
2018-09-01T17:22:27.293Z,96310.06
2018-09-01T17:24:56.396Z,96315.53
2018-09-01T17:27:25.524Z,96311.37
2018-09-01T17:29:54.744Z,96314.11
2018-09-01T17:32:23.959Z,96313.08
2018-09-01T17:34:53.152Z,96317.15
2018-09-01T17:37:22.330Z,96320.44
2018-09-01T17:39:51.440Z,96335.22
2018-09-01T17:42:20.647Z,96329.73
2018-09-01T17:44:49.802Z,96328.08
2018-09-01T17:47:18.908Z,96323.42
2018-09-01T17:49:48.031Z,96318.81
2018-09-01T17:52:17.212Z,96311.17
2018-09-01T17:54:46.418Z,96322.08
2018-09-01T17:57:15.692Z,96316.38
2018-09-01T17:59:45.106Z,96322.08
2018-09-01T18:02:14.383Z,96320.16
2018-09-01T18:04:43.521Z,96311.13
2018-09-01T18:07:12.787Z,96308.12
2018-09-01T18:09:41.883Z,96317.13
2018-09-01T18:12:11.133Z,96325.36
2018-09-01T18:14:40.370Z,96329.80
2018-09-01T18:17:09.511Z,96329.82
2018-09-01T18:19:38.657Z,96335.52
2018-09-01T18:22:08.077Z,96333.38
2018-09-01T18:24:37.301Z,96337.01
2018-09-01T18:27:06.529Z,96343.56
2018-09-01T18:29:35.790Z,96345.76
2018-09-01T18:32:04.897Z,96348.77
2018-09-01T18:34:34.911Z,96355.86
2018-09-01T18:37:04.157Z,96359.13
2018-09-01T18:39:34.327Z,96357.23
2018-09-01T18:42:03.435Z,96355.03
2018-09-01T18:44:32.543Z,96347.95
2018-09-01T18:47:01.819Z,96351.24
2018-09-01T18:49:31.029Z,96353.39
2018-09-01T18:52:00.135Z,96362.11
2018-09-01T18:54:29.404Z,96363.22
2018-09-01T18:56:58.536Z,96369.22
2018-09-01T18:59:27.645Z,96376.63
2018-09-01T19:01:56.793Z,96374.17
2018-09-01T19:04:26.012Z,96381.88
2018-09-01T19:06:55.190Z,96382.17
2018-09-01T19:09:24.315Z,96381.11
2018-09-01T19:11:53.599Z,96378.91
2018-09-01T19:14:22.732Z,96379.50
2018-09-01T19:16:51.992Z,96385.25
2018-09-01T19:19:22.324Z,96387.42
2018-09-01T19:21:51.428Z,96376.48
2018-09-01T19:24:21.074Z,96377.03
2018-09-01T19:26:50.238Z,96377.00
2018-09-01T19:29:19.433Z,96373.75
2018-09-01T19:31:48.834Z,96374.31
2018-09-01T19:34:18.165Z,96370.45
2018-09-01T19:36:47.296Z,96375.68
2018-09-01T19:39:16.488Z,96369.97
2018-09-01T19:41:45.639Z,96370.75
2018-09-01T19:44:14.799Z,96374.58
2018-09-01T19:46:43.991Z,96380.31
2018-09-01T19:49:13.167Z,96379.77
2018-09-01T19:51:42.317Z,96375.44
2018-09-01T19:54:12.167Z,96375.47
2018-09-01T19:56:41.301Z,96375.72
2018-09-01T19:59:10.425Z,96373.80
2018-09-01T20:01:39.609Z,96376.55
2018-09-01T20:04:08.713Z,96370.54
2018-09-01T20:06:37.828Z,96371.10
2018-09-01T20:09:07.120Z,96373.00
2018-09-01T20:11:37.129Z,96365.06
2018-09-01T20:14:07.486Z,96362.31
2018-09-01T20:16:36.645Z,96359.59
2018-09-01T20:19:06.225Z,96353.59
2018-09-01T20:21:35.337Z,96357.41
2018-09-01T20:24:05.008Z,96348.38
2018-09-01T20:26:34.165Z,96352.17
2018-09-01T20:29:03.363Z,96344.23
2018-09-01T20:31:32.499Z,96347.53
2018-09-01T20:34:01.722Z,96349.16
2018-09-01T20:36:30.916Z,96352.17
2018-09-01T20:39:00.022Z,96357.12
2018-09-01T20:41:29.163Z,96357.97
2018-09-01T20:43:58.357Z,96357.97
2018-09-01T20:46:27.457Z,96353.82
2018-09-01T20:48:56.601Z,96355.20
2018-09-01T20:51:25.807Z,96359.06
2018-09-01T20:53:55.021Z,96358.50
2018-09-01T20:56:24.167Z,96360.98
2018-09-01T20:58:53.289Z,96368.32
2018-09-01T21:01:22.397Z,96368.88
2018-09-01T21:03:51.852Z,96365.06
2018-09-01T21:06:21.103Z,96365.05
2018-09-01T21:08:50.264Z,96364.49
2018-09-01T21:11:19.421Z,96366.41
2018-09-01T21:13:48.673Z,96367.23
2018-09-01T21:16:18.396Z,96360.67
2018-09-01T21:18:47.662Z,96367.52
2018-09-01T21:21:16.764Z,96362.84
2018-09-01T21:23:45.987Z,96360.67
2018-09-01T21:26:15.100Z,96360.12
2018-09-01T21:28:44.239Z,96360.95
2018-09-01T21:31:13.490Z,96358.50
2018-09-01T21:33:42.624Z,96358.77
2018-09-01T21:36:11.946Z,96362.33
2018-09-01T21:38:41.072Z,96357.13
2018-09-01T21:41:10.266Z,96361.23
2018-09-01T21:43:39.468Z,96351.95
2018-09-01T21:46:08.659Z,96353.58
2018-09-01T21:48:37.854Z,96346.48
2018-09-01T21:51:06.966Z,96348.39
2018-09-01T21:53:36.141Z,96344.84
2018-09-01T21:56:05.767Z,96337.72
2018-09-01T21:58:34.967Z,96338.52
2018-09-01T22:01:09.447Z,96337.71
2018-09-01T22:03:43.947Z,96333.33
2018-09-01T22:06:13.157Z,96331.40
2018-09-01T22:08:42.282Z,96328.95
2018-09-01T22:11:11.393Z,96327.04
2018-09-01T22:13:40.540Z,96323.20
2018-09-01T22:16:09.657Z,96324.84
2018-09-01T22:18:38.811Z,96328.41
2018-09-01T22:21:08.489Z,96322.66
2018-09-01T22:23:38.273Z,96316.92
2018-09-01T22:26:07.774Z,96305.70
2018-09-01T22:28:37.175Z,96307.35
2018-09-01T22:31:06.297Z,96305.42
2018-09-01T22:33:35.696Z,96310.33
2018-09-01T22:36:07.756Z,96307.06
2018-09-01T22:38:36.961Z,96307.31
2018-09-01T22:41:06.072Z,96310.61
2018-09-01T22:43:35.174Z,96306.24
2018-09-01T22:46:04.360Z,96300.77
2018-09-01T22:48:33.506Z,96300.77
2018-09-01T22:51:02.636Z,96308.68
2018-09-01T22:53:31.848Z,96303.75
2018-09-01T22:56:01.032Z,96314.17
2018-09-01T22:58:30.244Z,96307.05
2018-09-01T23:00:59.368Z,96310.33
2018-09-01T23:03:28.642Z,96307.31
2018-09-01T23:05:57.988Z,96306.78
2018-09-01T23:08:27.179Z,96309.80
2018-09-01T23:10:56.383Z,96309.79
2018-09-01T23:13:25.500Z,96306.78
2018-09-01T23:15:54.715Z,96308.16
2018-09-01T23:18:23.938Z,96311.13
2018-09-01T23:20:53.017Z,96311.13
2018-09-01T23:23:22.186Z,96307.33
2018-09-01T23:25:51.446Z,96311.67
2018-09-01T23:28:20.616Z,96307.05
2018-09-01T23:30:49.714Z,96308.12
2018-09-01T23:33:18.930Z,96305.38
2018-09-01T23:35:48.064Z,96303.77
2018-09-01T23:38:17.197Z,96296.39
2018-09-01T23:40:46.369Z,96295.83
2018-09-01T23:43:15.663Z,96298.28
2018-09-01T23:45:44.881Z,96298.31
2018-09-01T23:48:13.992Z,96297.74
2018-09-01T23:50:43.154Z,96292.30
2018-09-01T23:53:12.241Z,96295.82
2018-09-01T23:55:41.509Z,96295.55
2018-09-01T23:58:10.697Z,96289.84
